createdAt,value
2019-04-27T00:01:45.321Z,12.70
2019-04-27T00:04:39.816Z,12.70
2019-04-27T00:07:31.025Z,12.70
2019-04-27T00:10:24.390Z,12.60
2019-04-27T00:12:57.179Z,12.60
2019-04-27T00:15:41.167Z,12.60
2019-04-27T00:18:23.476Z,12.60
2019-04-27T00:21:03.773Z,12.60
2019-04-27T00:23:35.937Z,12.70
2019-04-27T00:26:08.206Z,12.70
2019-04-27T00:28:40.464Z,12.60
2019-04-27T00:31:13.193Z,12.60
2019-04-27T00:33:45.430Z,12.60
2019-04-27T00:36:48.331Z,12.60
2019-04-27T00:39:30.086Z,12.50
2019-04-27T00:42:03.310Z,12.50
2019-04-27T00:44:35.551Z,12.60
2019-04-27T00:47:08.203Z,12.60
2019-04-27T00:49:40.274Z,12.50
2019-04-27T00:52:13.880Z,12.50
2019-04-27T00:54:46.188Z,12.50
2019-04-27T00:57:33.235Z,12.50
2019-04-27T01:00:23.784Z,12.50
2019-04-27T01:02:58.971Z,12.50
2019-04-27T01:05:31.379Z,12.40
2019-04-27T01:08:03.900Z,12.40
2019-04-27T01:10:36.114Z,12.50
2019-04-27T01:13:08.456Z,12.40
2019-04-27T01:15:40.462Z,12.50
2019-04-27T01:18:21.161Z,12.40
2019-04-27T01:20:53.596Z,12.40
2019-04-27T01:23:25.666Z,12.40
2019-04-27T01:26:16.489Z,12.40
2019-04-27T01:28:54.686Z,12.40
2019-04-27T01:31:26.677Z,12.40
2019-04-27T01:33:59.060Z,12.30
2019-04-27T01:36:31.386Z,12.30
2019-04-27T01:39:04.349Z,12.40
2019-04-27T01:41:36.432Z,12.40
2019-04-27T01:44:09.262Z,12.40
2019-04-27T01:46:41.753Z,12.40
2019-04-27T01:49:13.949Z,12.40
2019-04-27T01:51:46.122Z,12.40
2019-04-27T01:54:19.718Z,12.40
2019-04-27T01:56:52.199Z,12.40
2019-04-27T01:59:24.282Z,12.30
2019-04-27T02:02:15.388Z,12.30
2019-04-27T02:05:11.537Z,12.20
2019-04-27T02:07:44.288Z,12.10
2019-04-27T02:10:19.169Z,12.10
2019-04-27T02:12:51.899Z,12.10
2019-04-27T02:15:24.031Z,12.10
2019-04-27T02:17:56.192Z,12.10
2019-04-27T02:20:29.967Z,12.10
2019-04-27T02:23:02.386Z,12.20
2019-04-27T02:25:34.485Z,12.20
2019-04-27T02:28:15.667Z,12.10
2019-04-27T02:31:09.940Z,12.10
2019-04-27T02:33:46.253Z,12.10
2019-04-27T02:36:20.204Z,12.10
2019-04-27T02:38:52.233Z,12.00
2019-04-27T02:41:24.556Z,12.00
2019-04-27T02:44:19.944Z,12.10
2019-04-27T02:46:52.489Z,12.10
2019-04-27T02:49:24.829Z,12.10
2019-04-27T02:52:11.080Z,12.10
2019-04-27T02:54:43.178Z,12.10
2019-04-27T02:57:15.201Z,12.00
2019-04-27T02:59:47.236Z,12.00
2019-04-27T03:02:42.941Z,12.00
2019-04-27T03:05:29.434Z,12.00
2019-04-27T03:08:00.817Z,12.10
2019-04-27T03:10:33.210Z,12.00
2019-04-27T03:13:27.034Z,12.00
2019-04-27T03:16:24.235Z,12.10
2019-04-27T03:19:33.161Z,12.10
2019-04-27T03:22:24.256Z,12.00
2019-04-27T03:25:32.491Z,12.00
2019-04-27T03:28:10.973Z,12.00
2019-04-27T03:30:43.722Z,12.00
2019-04-27T03:33:16.377Z,12.00
2019-04-27T03:35:52.586Z,12.10
2019-04-27T03:38:22.919Z,12.10
2019-04-27T03:40:54.922Z,12.10
2019-04-27T03:43:27.187Z,12.10
2019-04-27T03:46:00.446Z,12.00
2019-04-27T03:48:32.998Z,12.00
2019-04-27T03:51:29.998Z,12.00
2019-04-27T03:54:23.072Z,12.00
2019-04-27T03:57:14.913Z,12.00
2019-04-27T04:00:00.822Z,12.00
2019-04-27T04:02:32.991Z,12.00
2019-04-27T04:05:05.985Z,12.00
2019-04-27T04:07:40.193Z,12.00
2019-04-27T04:10:12.841Z,12.10
2019-04-27T04:12:56.931Z,12.10
2019-04-27T04:15:52.226Z,12.10
2019-04-27T04:18:26.178Z,12.10
2019-04-27T04:21:00.406Z,12.00
2019-04-27T04:23:32.062Z,12.00
2019-04-27T04:26:04.241Z,12.00
2019-04-27T04:28:36.409Z,12.00
2019-04-27T04:31:13.462Z,12.10
2019-04-27T04:33:42.349Z,12.10
2019-04-27T04:36:14.437Z,12.10
2019-04-27T04:38:46.563Z,12.10
2019-04-27T04:41:26.223Z,12.10
2019-04-27T04:44:12.163Z,12.10
2019-04-27T04:47:00.662Z,12.00
2019-04-27T04:49:35.581Z,12.10
2019-04-27T04:52:09.646Z,12.10
2019-04-27T04:54:41.728Z,12.10
2019-04-27T04:57:13.857Z,12.10
2019-04-27T04:59:46.071Z,12.20
2019-04-27T05:02:19.146Z,12.10
2019-04-27T05:04:51.416Z,12.10
2019-04-27T05:07:23.702Z,12.00
2019-04-27T05:09:55.892Z,12.00
2019-04-27T05:12:28.766Z,12.00
2019-04-27T05:15:00.941Z,12.00
2019-04-27T05:17:33.009Z,12.00
2019-04-27T05:20:26.294Z,12.00
2019-04-27T05:22:56.936Z,12.10
2019-04-27T05:25:29.517Z,12.20
2019-04-27T05:28:01.790Z,12.20
2019-04-27T05:30:33.954Z,12.20
2019-04-27T05:33:06.446Z,12.40
2019-04-27T05:35:40.962Z,12.80
2019-04-27T05:38:13.469Z,13.30
2019-04-27T05:40:47.026Z,13.60
2019-04-27T05:43:25.497Z,13.70
2019-04-27T05:46:52.772Z,13.80
2019-04-27T05:49:36.285Z,14.50
2019-04-27T05:52:26.185Z,14.80
2019-04-27T05:54:59.178Z,14.80
2019-04-27T05:57:31.771Z,15.10
2019-04-27T06:00:05.289Z,15.30
2019-04-27T06:02:37.338Z,15.80
2019-04-27T06:05:10.053Z,16.10
2019-04-27T06:07:42.194Z,16.00
2019-04-27T06:10:15.695Z,16.10
2019-04-27T06:12:48.577Z,15.90
2019-04-27T06:15:21.138Z,15.50
2019-04-27T06:17:53.219Z,15.30
2019-04-27T06:20:25.451Z,15.10
2019-04-27T06:22:58.855Z,15.20
2019-04-27T06:25:31.455Z,15.30
2019-04-27T06:28:03.799Z,15.60
2019-04-27T06:30:36.021Z,16.00
2019-04-27T06:33:09.413Z,16.20
2019-04-27T06:35:41.656Z,15.90
2019-04-27T06:38:13.723Z,15.70
2019-04-27T06:40:45.748Z,15.60
2019-04-27T06:43:18.896Z,15.70
2019-04-27T06:45:51.147Z,16.10
2019-04-27T06:48:23.374Z,16.30
2019-04-27T06:51:02.633Z,16.50
2019-04-27T06:53:29.535Z,17.60
2019-04-27T06:56:01.664Z,18.30
2019-04-27T06:58:34.357Z,18.00
2019-04-27T07:01:07.186Z,17.70
2019-04-27T07:03:39.712Z,17.40
2019-04-27T07:06:11.806Z,17.40
2019-04-27T07:08:43.943Z,17.70
2019-04-27T07:11:16.085Z,17.50
2019-04-27T07:13:49.772Z,17.40
2019-04-27T07:16:22.175Z,17.30
2019-04-27T07:18:54.576Z,17.10
2019-04-27T07:21:28.564Z,17.40
2019-04-27T07:24:00.701Z,18.20
2019-04-27T07:26:32.897Z,19.00
2019-04-27T07:29:05.053Z,18.90
2019-04-27T07:31:37.202Z,18.40
2019-04-27T07:34:09.514Z,17.90
2019-04-27T07:36:41.889Z,17.30
2019-04-27T07:39:13.957Z,17.80
2019-04-27T07:41:46.265Z,19.00
2019-04-27T07:44:33.639Z,19.80
2019-04-27T07:47:42.886Z,19.90
2019-04-27T07:50:15.349Z,19.30
2019-04-27T07:52:48.667Z,19.10
2019-04-27T07:55:21.186Z,19.10
2019-04-27T07:57:53.349Z,19.80
2019-04-27T08:00:25.488Z,20.20
2019-04-27T08:02:58.605Z,20.90
2019-04-27T08:05:30.920Z,21.60
2019-04-27T08:08:03.070Z,22.00
2019-04-27T08:10:35.095Z,22.60
2019-04-27T08:13:07.214Z,22.60
2019-04-27T08:15:39.690Z,22.50
2019-04-27T08:18:14.622Z,22.90
2019-04-27T08:20:46.667Z,22.60
2019-04-27T08:23:19.640Z,22.90
2019-04-27T08:25:51.814Z,23.70
2019-04-27T08:28:40.289Z,24.30
2019-04-27T08:31:20.371Z,24.40
2019-04-27T08:33:52.553Z,23.20
2019-04-27T08:36:24.852Z,22.10
2019-04-27T08:38:58.758Z,21.60
2019-04-27T08:41:30.699Z,21.50
2019-04-27T08:44:03.201Z,21.70
2019-04-27T08:46:35.270Z,21.70
2019-04-27T08:49:08.383Z,22.00
2019-04-27T08:51:41.697Z,22.10
2019-04-27T08:54:13.766Z,21.60
2019-04-27T08:56:45.844Z,21.70
2019-04-27T08:59:19.443Z,21.70
2019-04-27T09:01:51.721Z,21.80
2019-04-27T09:04:23.870Z,22.00
2019-04-27T09:07:01.360Z,22.50
2019-04-27T09:09:45.246Z,22.70
2019-04-27T09:12:53.488Z,22.80
2019-04-27T09:15:33.358Z,22.80
2019-04-27T09:18:05.461Z,22.50
2019-04-27T09:20:44.250Z,22.70
2019-04-27T09:23:16.405Z,22.50
2019-04-27T09:25:49.646Z,22.70
2019-04-27T09:28:22.020Z,22.60
2019-04-27T09:30:54.348Z,21.90
2019-04-27T09:33:26.856Z,21.90
2019-04-27T09:35:59.819Z,21.90
2019-04-27T09:38:32.400Z,21.60
2019-04-27T09:41:07.027Z,21.60
2019-04-27T09:43:39.387Z,22.20
2019-04-27T09:46:12.210Z,22.70
2019-04-27T09:48:46.548Z,23.10
2019-04-27T09:51:19.137Z,23.10
2019-04-27T09:53:51.336Z,23.30
2019-04-27T09:56:23.539Z,23.60
2019-04-27T09:58:57.282Z,23.60
2019-04-27T10:01:29.934Z,23.90
2019-04-27T10:04:02.049Z,24.10
2019-04-27T10:06:36.224Z,24.10
2019-04-27T10:09:09.975Z,23.80
2019-04-27T10:11:42.506Z,23.00
2019-04-27T10:14:16.356Z,22.40
2019-04-27T10:16:48.520Z,22.20
2019-04-27T10:19:28.602Z,22.80
2019-04-27T10:21:54.608Z,23.10
2019-04-27T10:24:26.884Z,22.90
2019-04-27T10:26:58.934Z,22.50
2019-04-27T10:29:31.047Z,22.20
2019-04-27T10:32:03.165Z,22.30
2019-04-27T10:34:35.381Z,22.40
2019-04-27T10:37:07.533Z,22.30
2019-04-27T10:39:39.702Z,21.90
2019-04-27T10:42:11.773Z,21.90
2019-04-27T10:44:43.834Z,21.70
2019-04-27T10:47:16.427Z,22.00
2019-04-27T10:49:48.605Z,22.20
2019-04-27T10:52:20.861Z,22.10
2019-04-27T10:54:53.076Z,22.20
2019-04-27T10:57:25.837Z,21.90
2019-04-27T10:59:58.193Z,21.90
2019-04-27T11:02:30.291Z,21.60
2019-04-27T11:05:20.135Z,21.50
2019-04-27T11:07:52.826Z,21.20
2019-04-27T11:10:26.046Z,21.10
2019-04-27T11:12:58.344Z,20.70
2019-04-27T11:15:30.914Z,20.50
2019-04-27T11:18:03.575Z,20.50
2019-04-27T11:20:36.339Z,20.50
2019-04-27T11:23:12.095Z,20.70
2019-04-27T11:25:43.271Z,20.90
2019-04-27T11:28:16.010Z,20.90
2019-04-27T11:30:48.557Z,20.90
2019-04-27T11:33:21.177Z,21.00
2019-04-27T11:36:17.103Z,21.10
2019-04-27T11:38:50.815Z,21.10
2019-04-27T11:41:23.512Z,21.30
2019-04-27T11:43:56.630Z,21.40
2019-04-27T11:46:29.581Z,21.30
2019-04-27T11:49:01.985Z,21.10
2019-04-27T11:51:36.537Z,21.20
2019-04-27T11:54:09.131Z,21.20
2019-04-27T11:56:41.988Z,20.90
2019-04-27T11:59:15.954Z,20.80
2019-04-27T12:01:48.627Z,20.90
2019-04-27T12:04:21.164Z,20.80
2019-04-27T12:06:53.858Z,20.90
2019-04-27T12:09:26.536Z,20.90
2019-04-27T12:12:12.667Z,21.10
2019-04-27T12:14:34.460Z,21.10
2019-04-27T12:17:07.427Z,20.90
2019-04-27T12:19:40.112Z,20.90
2019-04-27T12:22:12.796Z,20.90
2019-04-27T12:24:46.402Z,20.90
2019-04-27T12:27:56.213Z,20.90
2019-04-27T12:30:41.002Z,20.80
2019-04-27T12:33:13.760Z,20.80
2019-04-27T12:35:48.272Z,20.80
2019-04-27T12:38:21.075Z,20.70
2019-04-27T12:40:53.911Z,20.50
2019-04-27T12:43:26.883Z,20.50
2019-04-27T12:46:07.094Z,20.40
2019-04-27T12:48:39.735Z,20.30
2019-04-27T12:51:12.578Z,20.20
2019-04-27T12:53:52.877Z,20.10
2019-04-27T12:56:45.805Z,20.10
2019-04-27T12:59:49.393Z,20.20
2019-04-27T13:02:24.072Z,20.20
2019-04-27T13:04:56.857Z,20.10
2019-04-27T13:07:30.547Z,20.20
2019-04-27T13:10:03.219Z,20.20
2019-04-27T13:12:36.794Z,20.20
2019-04-27T13:15:11.044Z,20.20
2019-04-27T13:17:43.776Z,20.30
2019-04-27T13:20:18.782Z,20.50
2019-04-27T13:22:51.441Z,20.60
2019-04-27T13:25:24.205Z,20.80
2019-04-27T13:27:56.816Z,20.70
2019-04-27T13:30:29.730Z,20.60
2019-04-27T13:33:02.253Z,20.70
2019-04-27T13:35:35.650Z,20.30
2019-04-27T13:38:08.332Z,20.30
2019-04-27T13:40:41.507Z,20.10
2019-04-27T13:43:26.162Z,20.00
2019-04-27T13:46:09.186Z,20.10
2019-04-27T13:48:59.255Z,20.00
2019-04-27T13:51:49.464Z,19.80
2019-04-27T13:54:26.541Z,19.70
2019-04-27T13:56:56.414Z,19.60
2019-04-27T13:59:29.121Z,19.80
2019-04-27T14:02:02.543Z,19.70
2019-04-27T14:04:34.963Z,19.80
2019-04-27T14:07:09.083Z,20.10
2019-04-27T14:09:41.989Z,20.10
2019-04-27T14:12:22.078Z,20.10
2019-04-27T14:14:54.511Z,20.10
2019-04-27T14:17:29.264Z,20.10
2019-04-27T14:20:02.157Z,20.10
2019-04-27T14:22:34.773Z,20.00
2019-04-27T14:25:08.606Z,19.90
2019-04-27T14:27:41.852Z,20.00
2019-04-27T14:30:16.347Z,19.90
2019-04-27T14:32:48.524Z,19.80
2019-04-27T14:35:20.651Z,19.80
2019-04-27T14:37:52.947Z,19.80
2019-04-27T14:40:25.022Z,19.70
2019-04-27T14:42:58.941Z,19.60
2019-04-27T14:45:31.106Z,19.40
2019-04-27T14:48:03.264Z,19.30
2019-04-27T14:50:35.533Z,19.20
2019-04-27T14:53:08.838Z,19.00
2019-04-27T14:55:41.081Z,18.90
2019-04-27T14:58:13.120Z,18.70
2019-04-27T15:00:45.288Z,18.60
2019-04-27T15:03:17.343Z,18.70
2019-04-27T15:05:53.295Z,18.70
2019-04-27T15:08:25.154Z,18.60
2019-04-27T15:10:57.504Z,18.50
2019-04-27T15:13:29.915Z,18.50
2019-04-27T15:16:02.555Z,18.40
2019-04-27T15:18:43.608Z,18.40
2019-04-27T15:21:14.047Z,18.30
2019-04-27T15:23:48.342Z,18.30
2019-04-27T15:26:22.859Z,18.40
2019-04-27T15:28:55.407Z,18.40
2019-04-27T15:31:31.563Z,18.40
2019-04-27T15:34:23.428Z,18.40
2019-04-27T15:37:22.800Z,18.50
2019-04-27T15:40:19.373Z,18.60
2019-04-27T15:43:04.442Z,18.60
2019-04-27T15:45:36.582Z,18.60
2019-04-27T15:48:08.817Z,18.70
2019-04-27T15:50:40.953Z,18.60
2019-04-27T15:53:13.234Z,18.60
2019-04-27T15:55:45.335Z,18.50
2019-04-27T15:58:20.987Z,18.50
2019-04-27T16:00:56.532Z,18.40
2019-04-27T16:03:27.222Z,18.30
2019-04-27T16:06:03.314Z,18.30
2019-04-27T16:08:33.178Z,18.20
2019-04-27T16:11:05.350Z,18.10
2019-04-27T16:13:38.255Z,18.00
2019-04-27T16:16:10.517Z,18.00
2019-04-27T16:18:42.549Z,17.90
2019-04-27T16:21:14.768Z,18.00
2019-04-27T16:24:06.016Z,17.90
2019-04-27T16:26:38.741Z,17.80
2019-04-27T16:29:11.887Z,17.80
2019-04-27T16:31:44.017Z,17.80
2019-04-27T16:34:16.150Z,17.90
2019-04-27T16:36:48.343Z,17.90
2019-04-27T16:39:20.521Z,17.70
2019-04-27T16:41:52.567Z,17.70
2019-04-27T16:44:24.762Z,17.60
2019-04-27T16:46:58.269Z,17.60
2019-04-27T16:49:30.501Z,17.60
2019-04-27T16:52:02.729Z,17.60
2019-04-27T16:54:34.941Z,17.70
2019-04-27T16:57:07.927Z,17.70
2019-04-27T16:59:46.371Z,17.60
2019-04-27T17:02:17.332Z,17.40
2019-04-27T17:04:55.388Z,17.40
2019-04-27T17:07:24.634Z,17.40
2019-04-27T17:09:59.396Z,17.50
2019-04-27T17:12:34.800Z,17.50
2019-04-27T17:15:22.609Z,17.50
2019-04-27T17:18:13.441Z,17.50
2019-04-27T17:20:48.268Z,17.30
2019-04-27T17:23:31.254Z,17.30
2019-04-27T17:26:09.535Z,17.30
2019-04-27T17:28:41.398Z,17.30
2019-04-27T17:31:17.886Z,17.20
2019-04-27T17:33:53.674Z,17.20
2019-04-27T17:36:26.011Z,17.10
2019-04-27T17:38:58.420Z,17.10
2019-04-27T17:41:30.978Z,17.10
2019-04-27T17:44:02.995Z,17.10
2019-04-27T17:46:35.719Z,17.00
2019-04-27T17:49:08.513Z,16.90
2019-04-27T17:51:44.245Z,16.90
2019-04-27T17:54:14.479Z,16.90
2019-04-27T17:56:49.609Z,16.90
2019-04-27T17:59:21.085Z,16.90
2019-04-27T18:01:53.918Z,16.80
2019-04-27T18:04:28.752Z,16.90
2019-04-27T18:07:03.334Z,16.80
2019-04-27T18:09:39.978Z,16.80
2019-04-27T18:12:14.646Z,16.70
2019-04-27T18:14:42.835Z,16.60
2019-04-27T18:17:15.083Z,16.60
2019-04-27T18:19:59.658Z,16.70
2019-04-27T18:22:36.514Z,16.70
2019-04-27T18:25:10.072Z,16.70
2019-04-27T18:28:14.488Z,16.60
2019-04-27T18:31:11.415Z,16.60
2019-04-27T18:33:42.771Z,16.70
2019-04-27T18:36:14.908Z,16.50
2019-04-27T18:38:47.034Z,16.50
2019-04-27T18:41:28.676Z,16.50
2019-04-27T18:44:00.631Z,16.50
2019-04-27T18:46:33.155Z,16.50
2019-04-27T18:49:27.208Z,16.40
2019-04-27T18:52:15.606Z,16.40
2019-04-27T18:54:47.862Z,16.30
2019-04-27T18:57:20.313Z,16.30
2019-04-27T18:59:52.771Z,16.20
2019-04-27T19:02:24.878Z,16.20
2019-04-27T19:04:58.152Z,16.20
2019-04-27T19:07:30.395Z,16.20
2019-04-27T19:10:02.557Z,16.10
2019-04-27T19:12:34.725Z,16.10
2019-04-27T19:15:08.218Z,16.10
2019-04-27T19:17:40.668Z,16.10
2019-04-27T19:20:13.408Z,16.20
2019-04-27T19:22:45.596Z,16.10
2019-04-27T19:25:28.700Z,16.10
2019-04-27T19:28:30.692Z,16.10
2019-04-27T19:31:06.076Z,15.90
2019-04-27T19:33:39.636Z,15.90
2019-04-27T19:36:11.825Z,15.80
2019-04-27T19:38:43.863Z,15.80
2019-04-27T19:41:18.412Z,15.80
2019-04-27T19:43:51.040Z,15.70
2019-04-27T19:46:23.325Z,15.60
2019-04-27T19:48:55.427Z,15.60
2019-04-27T19:51:28.252Z,15.50
2019-04-27T19:54:00.644Z,15.50
2019-04-27T19:56:32.715Z,15.50
2019-04-27T19:59:09.057Z,15.50
2019-04-27T20:01:44.549Z,15.40
2019-04-27T20:04:31.211Z,15.30
2019-04-27T20:07:04.275Z,15.20
2019-04-27T20:09:45.868Z,15.20
2019-04-27T20:12:17.986Z,15.20
2019-04-27T20:14:59.170Z,15.20
2019-04-27T20:17:37.354Z,15.20
2019-04-27T20:20:10.649Z,15.20
2019-04-27T20:22:42.906Z,15.10
2019-04-27T20:25:15.109Z,15.10
2019-04-27T20:27:49.538Z,15.10
2019-04-27T20:30:21.388Z,15.20
2019-04-27T20:32:53.537Z,15.20
2019-04-27T20:35:25.775Z,15.20
2019-04-27T20:37:57.876Z,15.20
2019-04-27T20:40:31.576Z,15.20
2019-04-27T20:43:03.948Z,15.20
2019-04-27T20:45:35.986Z,15.20
2019-04-27T20:48:08.368Z,15.20
2019-04-27T20:50:41.145Z,15.10
2019-04-27T20:53:17.051Z,15.10
2019-04-27T20:55:49.276Z,15.10
2019-04-27T20:58:21.459Z,15.00
2019-04-27T21:00:53.834Z,15.00
2019-04-27T21:03:32.728Z,14.80
2019-04-27T21:06:22.733Z,14.80
2019-04-27T21:08:54.856Z,14.70
2019-04-27T21:11:30.863Z,14.70
2019-04-27T21:14:03.138Z,14.80
2019-04-27T21:16:35.187Z,14.90
2019-04-27T21:19:07.257Z,14.80
2019-04-27T21:21:40.977Z,14.70
2019-04-27T21:24:13.271Z,14.70
2019-04-27T21:27:04.248Z,14.70
2019-04-27T21:29:36.266Z,14.60
2019-04-27T21:32:08.335Z,14.40
2019-04-27T21:34:41.353Z,14.30
2019-04-27T21:37:13.532Z,14.20
2019-04-27T21:39:45.606Z,14.10
2019-04-27T21:42:17.820Z,14.00
2019-04-27T21:44:50.938Z,14.00
2019-04-27T21:47:23.539Z,13.90
2019-04-27T21:49:55.627Z,13.80
2019-04-27T21:52:31.589Z,13.70
2019-04-27T21:55:04.064Z,13.70
2019-04-27T21:57:36.018Z,13.60
2019-04-27T22:00:21.118Z,13.60
2019-04-27T22:02:53.567Z,13.60
2019-04-27T22:05:25.660Z,13.50
2019-04-27T22:07:57.725Z,13.50
2019-04-27T22:10:31.096Z,13.50
2019-04-27T22:13:03.313Z,13.50
2019-04-27T22:15:35.644Z,13.60
2019-04-27T22:18:07.827Z,13.60
2019-04-27T22:20:42.415Z,13.50
2019-04-27T22:23:22.921Z,13.50
2019-04-27T22:25:54.731Z,13.50
2019-04-27T22:28:26.733Z,13.40
2019-04-27T22:30:58.941Z,13.40
2019-04-27T22:33:30.974Z,13.30
2019-04-27T22:36:03.123Z,13.30
2019-04-27T22:38:35.680Z,13.30
2019-04-27T22:41:38.889Z,13.30
2019-04-27T22:44:42.080Z,13.20
2019-04-27T22:47:15.149Z,13.20
2019-04-27T22:49:47.291Z,13.20
2019-04-27T22:52:19.394Z,13.20
2019-04-27T22:54:51.640Z,13.20
2019-04-27T22:57:45.553Z,13.10
2019-04-27T23:00:42.678Z,13.10
2019-04-27T23:03:21.165Z,13.10
2019-04-27T23:05:53.755Z,13.00
2019-04-27T23:08:25.849Z,13.00
2019-04-27T23:10:58.570Z,13.00
2019-04-27T23:13:30.663Z,12.90
2019-04-27T23:16:04.714Z,12.90
2019-04-27T23:18:36.741Z,12.90
2019-04-27T23:21:08.740Z,12.90
2019-04-27T23:23:41.435Z,12.80
2019-04-27T23:26:13.777Z,12.80
2019-04-27T23:28:45.856Z,12.80
2019-04-27T23:31:33.661Z,12.70
2019-04-27T23:34:05.925Z,12.60
2019-04-27T23:36:38.021Z,12.60
2019-04-27T23:39:11.863Z,12.60
2019-04-27T23:41:43.905Z,12.50
2019-04-27T23:44:15.945Z,12.40
2019-04-27T23:46:48.235Z,12.40
2019-04-27T23:49:20.304Z,12.40
2019-04-27T23:51:57.590Z,12.40
2019-04-27T23:54:29.653Z,12.40
2019-04-27T23:57:01.868Z,12.30
2019-04-27T23:59:34.191Z,12.40
